Big Bear Station Historical Data
Daily Summary for April 22, 2019 Units:  English    Metric   Both
Next Day »
Daily Weekly Monthly Yearly Custom
  High: Low: Average:
Temperature: 57.0 °F 35.2 °F 44.1 °F
Dew Point: 40.8 °F 29.8 °F 33.9 °F
Humidity: 90% 45% 69%
Wind Speed: 10.4mph 0.0mph 2.9mph
Wind Gust: -999.0mph - -
Wind- - West
Pressure: 23.52 in 23.45 in -
Precipitation: 0.14 in    
Historical Graphs
 
 
Tabular Data for April 22, 2019
Time Temperature Dew Point Pressure Wind Wind Speed Wind Gust Humidity Rainfall Rate (Hourly)
00:07 35.2 °F 31.4 °F 23.45 in Calm   -999.0 mph 86% 0.00 in
00:22 36.0 °F 32.2 °F 23.46 in Calm   -999.0 mph 86% 0.00 in
00:38 36.3 °F 31.9 °F 23.46 in Calm   -999.0 mph 84% 0.00 in
00:53 36.7 °F 32.0 °F 23.47 in Calm   -999.0 mph 83% 0.00 in
01:08 36.7 °F 31.4 °F 23.47 in Calm   -999.0 mph 81% 0.00 in
01:23 36.7 °F 31.4 °F 23.47 in Calm   -999.0 mph 81% 0.00 in
01:38 37.0 °F 31.4 °F 23.46 in Calm   -999.0 mph 80% 0.00 in
01:54 36.7 °F 31.4 °F 23.46 in Calm   -999.0 mph 81% 0.00 in
02:09 36.9 °F 31.6 °F 23.46 in Calm   -999.0 mph 81% 0.00 in
02:24 37.0 °F 31.4 °F 23.46 in Calm   -999.0 mph 80% 0.00 in
02:39 37.2 °F 31.6 °F 23.46 in Calm   -999.0 mph 80% 0.00 in
02:54 37.6 °F 32.0 °F 23.46 in Calm   -999.0 mph 80% 0.00 in
03:10 37.4 °F 31.8 °F 23.45 in Calm   -999.0 mph 80% 0.00 in
03:25 37.4 °F 31.2 °F 23.46 in South 2.7 mph -999.0 mph 78% 0.00 in
03:41 37.6 °F 31.0 °F 23.46 in South 2.7 mph -999.0 mph 77% 0.00 in
03:56 37.0 °F 30.8 °F 23.45 in Calm   -999.0 mph 78% 0.00 in
04:11 37.0 °F 29.8 °F 23.46 in Calm   -999.0 mph 75% 0.00 in
04:26 37.2 °F 30.0 °F 23.46 in Calm   -999.0 mph 75% 0.00 in
04:41 38.1 °F 30.2 °F 23.46 in Calm   -999.0 mph 73% 0.00 in
04:57 38.1 °F 29.9 °F 23.46 in WNW 1.1 mph -999.0 mph 72% 0.00 in
05:12 38.7 °F 30.5 °F 23.46 in South 3.7 mph -999.0 mph 72% 0.00 in
05:27 38.1 °F 30.2 °F 23.46 in SSW 4.2 mph -999.0 mph 73% 0.00 in
05:42 37.6 °F 30.1 °F 23.46 in Calm   -999.0 mph 74% 0.00 in
05:58 38.1 °F 30.2 °F 23.46 in SSE 2.2 mph -999.0 mph 73% 0.00 in
06:13 38.1 °F 30.2 °F 23.47 in SSE 2.2 mph -999.0 mph 73% 0.00 in
06:29 38.3 °F 30.4 °F 23.47 in ESE 2.7 mph -999.0 mph 73% 0.00 in
06:44 39.6 °F 31.7 °F 23.47 in NW 5.3 mph -999.0 mph 73% 0.00 in
06:59 40.8 °F 31.8 °F 23.48 in NW 5.3 mph -999.0 mph 70% 0.00 in
07:14 41.2 °F 31.8 °F 23.48 in NE 2.7 mph -999.0 mph 69% 0.00 in
07:29 41.7 °F 32.3 °F 23.48 in NNW 5.8 mph -999.0 mph 69% 0.00 in
07:45 42.1 °F 32.3 °F 23.48 in NNW 6.3 mph -999.0 mph 68% 0.00 in
08:00 42.1 °F 33.4 °F 23.48 in NW 9.4 mph -999.0 mph 71% 0.00 in
08:15 42.1 °F 33.0 °F 23.49 in NNW 4.2 mph -999.0 mph 70% 0.00 in
08:31 43.2 °F 33.0 °F 23.49 in WNW 5.8 mph -999.0 mph 67% 0.00 in
08:46 43.5 °F 33.6 °F 23.50 in North 4.7 mph -999.0 mph 68% 0.00 in
09:02 44.2 °F 33.2 °F 23.50 in North 5.3 mph -999.0 mph 65% 0.00 in
09:17 45.9 °F 33.2 °F 23.50 in North 4.2 mph -999.0 mph 61% 0.00 in
09:33 45.9 °F 33.6 °F 23.50 in NNW 7.3 mph -999.0 mph 62% 0.00 in
09:48 46.4 °F 32.8 °F 23.50 in WNW 5.3 mph -999.0 mph 59% 0.00 in
10:03 47.7 °F 32.3 °F 23.50 in NNW 6.8 mph -999.0 mph 55% 0.00 in
10:19 47.8 °F 33.3 °F 23.50 in NNE 1.7 mph -999.0 mph 57% 0.00 in
10:35 48.6 °F 33.2 °F 23.50 in NNW 3.2 mph -999.0 mph 55% 0.00 in
10:51 50.5 °F 33.5 °F 23.50 in NNE 3.2 mph -999.0 mph 52% 0.00 in
11:06 51.6 °F 33.6 °F 23.50 in NNE 3.7 mph -999.0 mph 50% 0.00 in
11:21 51.8 °F 34.2 °F 23.50 in NNE 6.8 mph -999.0 mph 51% 0.00 in
11:36 52.7 °F 34.1 °F 23.50 in ENE 4.7 mph -999.0 mph 49% 0.00 in
11:51 50.7 °F 32.7 °F 23.50 in Calm   -999.0 mph 50% 0.00 in
12:07 52.3 °F 34.2 °F 23.50 in North 5.8 mph -999.0 mph 50% 0.00 in
12:22 50.4 °F 33.4 °F 23.50 in NNW 5.3 mph -999.0 mph 52% 0.00 in
12:37 50.5 °F 33.5 °F 23.50 in NW 5.8 mph -999.0 mph 52% 0.00 in
12:53 50.2 °F 33.7 °F 23.50 in North 5.8 mph -999.0 mph 53% 0.00 in
13:08 49.8 °F 33.3 °F 23.50 in WNW 5.3 mph -999.0 mph 53% 0.00 in
13:24 50.9 °F 32.9 °F 23.50 in North 5.3 mph -999.0 mph 50% 0.00 in
13:39 51.6 °F 33.6 °F 23.50 in NNW 7.3 mph -999.0 mph 50% 0.00 in
13:54 51.3 °F 33.8 °F 23.50 in NW 4.7 mph -999.0 mph 51% 0.00 in
14:10 50.9 °F 34.4 °F 23.50 in WNW 4.2 mph -999.0 mph 53% 0.00 in
14:25 50.9 °F 34.4 °F 23.49 in North 5.3 mph -999.0 mph 53% 0.00 in
14:40 50.9 °F 33.9 °F 23.49 in NW 5.8 mph -999.0 mph 52% 0.00 in
14:56 52.7 °F 34.1 °F 23.49 in NNW 7.8 mph -999.0 mph 49% 0.00 in
15:11 53.8 °F 34.6 °F 23.48 in NW 10.4 mph -999.0 mph 48% 0.00 in
15:26 53.8 °F 35.6 °F 23.48 in North 8.3 mph -999.0 mph 50% 0.00 in
15:41 54.5 °F 34.7 °F 23.48 in NNW 7.3 mph -999.0 mph 47% 0.00 in
15:57 54.9 °F 34.5 °F 23.48 in NNE 5.3 mph -999.0 mph 46% 0.00 in
16:12 52.2 °F 34.6 °F 23.48 in North 6.3 mph -999.0 mph 51% 0.00 in
16:27 53.2 °F 34.5 °F 23.48 in NW 7.3 mph -999.0 mph 49% 0.00 in
16:42 55.0 °F 35.7 °F 23.48 in NNW 5.3 mph -999.0 mph 48% 0.00 in
16:57 57.0 °F 35.9 °F 23.48 in NW 7.3 mph -999.0 mph 45% 0.00 in
17:13 53.2 °F 36.5 °F 23.48 in WNW 3.2 mph -999.0 mph 53% 0.00 in
17:28 49.8 °F 36.9 °F 23.48 in North 7.3 mph -999.0 mph 61% 0.00 in
17:43 45.7 °F 39.9 °F 23.49 in ENE 1.7 mph -999.0 mph 80% 0.00 in
17:58 40.8 °F 37.2 °F 23.49 in Calm   -999.0 mph 87% 0.00 in
18:13 41.2 °F 38.5 °F 23.49 in Calm   -999.0 mph 90% 0.00 in
18:29 43.5 °F 40.8 °F 23.48 in Calm   -999.0 mph 90% 0.00 in
18:44 44.2 °F 40.6 °F 23.48 in Calm   -999.0 mph 87% 0.00 in
18:59 44.2 °F 40.0 °F 23.49 in WNW 2.7 mph -999.0 mph 85% 0.00 in
19:14 43.7 °F 39.5 °F 23.49 in Calm   -999.0 mph 85% 0.00 in
19:30 44.1 °F 38.0 °F 23.48 in WNW 4.2 mph -999.0 mph 79% 0.00 in
19:45 43.2 °F 38.1 °F 23.49 in Calm   -999.0 mph 82% 0.00 in
20:00 42.1 °F 37.3 °F 23.49 in Calm   -999.0 mph 83% 0.00 in
20:15 41.5 °F 37.0 °F 23.49 in Calm   -999.0 mph 84% 0.00 in
20:30 42.1 °F 37.0 °F 23.50 in Calm   -999.0 mph 82% 0.00 in
20:46 42.3 °F 37.2 °F 23.50 in Calm   -999.0 mph 82% 0.00 in
21:01 42.1 °F 36.7 °F 23.50 in Calm   -999.0 mph 81% 0.00 in
21:16 42.4 °F 36.4 °F 23.51 in Calm   -999.0 mph 79% 0.00 in
21:32 42.6 °F 36.5 °F 23.51 in Calm   -999.0 mph 79% 0.00 in
21:47 42.6 °F 35.6 °F 23.51 in Calm   -999.0 mph 76% 0.00 in
22:02 42.6 °F 35.9 °F 23.51 in Calm   -999.0 mph 77% 0.00 in
22:17 42.3 °F 35.9 °F 23.52 in ESE 1.1 mph -999.0 mph 78% 0.00 in
22:33 42.1 °F 36.1 °F 23.52 in Calm   -999.0 mph 79% 0.00 in
22:48 43.0 °F 36.0 °F 23.52 in South 2.7 mph -999.0 mph 76% 0.00 in
23:03 42.1 °F 35.7 °F 23.52 in WNW 1.1 mph -999.0 mph 78% 0.00 in
23:18 42.8 °F 35.8 °F 23.52 in West 1.1 mph -999.0 mph 76% 0.00 in
23:34 42.8 °F 36.1 °F 23.52 in Calm   -999.0 mph 77% 0.00 in
23:49 43.7 °F 36.0 °F 23.51 in Calm   -999.0 mph 74% 0.00 in
Big Bear CA Weather